Time;durP1;ratioP1;P1;durP2;ratioP2;P2;SDS_P1;SDS_P2;PMS_P1;PMS_P2;Temp;Humidity;BMP_temperature;BMP_pressure;BME280_temperature;BME280_humidity;BME280_pressure;Samples;Min_cycle;Max_cycle;Signal;HPM_P1;HPM_P2
2022/07/16 00:02:25;;;;;;;4.95;3.58;;;21.10;51.90;;;;;;5028748;28;20129;-62
2022/07/16 00:04:51;;;;;;;6.15;3.22;;;21.10;52.00;;;;;;5029654;28;20029;-62
2022/07/16 00:07:16;;;;;;;4.47;3.13;;;21.10;52.00;;;;;;5029602;28;20568;-62
2022/07/16 00:09:42;;;;;;;5.07;2.60;;;21.10;52.10;;;;;;5029768;28;20036;-62
2022/07/16 00:12:07;;;;;;;6.20;3.15;;;21.10;52.10;;;;;;5029295;28;20036;-62
2022/07/16 00:14:33;;;;;;;3.00;2.15;;;21.10;52.20;;;;;;5028376;28;20030;-63
2022/07/16 00:16:58;;;;;;;6.00;2.70;;;21.10;52.20;;;;;;5029095;28;20180;-62
2022/07/16 00:19:24;;;;;;;4.25;2.95;;;21.10;52.20;;;;;;5028933;28;20079;-62
2022/07/16 00:21:51;;;;;;;6.10;2.83;;;21.10;52.20;;;;;;5029131;28;20034;-62
2022/07/16 00:24:17;;;;;;;4.00;2.55;;;21.10;52.20;;;;;;5029251;28;20034;-62
2022/07/16 00:26:42;;;;;;;4.32;2.53;;;21.10;52.20;;;;;;5029189;28;20025;-61
2022/07/16 00:29:08;;;;;;;4.65;2.58;;;21.10;52.30;;;;;;5027362;28;20429;-62
2022/07/16 00:31:34;;;;;;;3.83;2.35;;;21.10;52.30;;;;;;5028991;28;20506;-62
2022/07/16 00:33:59;;;;;;;4.30;2.42;;;21.00;52.90;;;;;;5028768;28;20025;-62
2022/07/16 00:36:25;;;;;;;4.15;2.47;;;21.00;52.20;;;;;;5028777;28;20063;-62
2022/07/16 00:38:50;;;;;;;2.80;1.55;;;21.00;52.30;;;;;;5028484;28;20014;-62
2022/07/16 00:41:16;;;;;;;3.25;2.20;;;21.10;52.30;;;;;;5010759;28;20036;-64
2022/07/16 00:43:49;;;;;;;3.63;1.88;;;21.10;52.30;;;;;;5029079;28;20029;-62
2022/07/16 00:46:17;;;;;;;4.22;1.52;;;21.10;52.30;;;;;;5009285;28;20109;-62
2022/07/16 00:48:43;;;;;;;3.78;1.95;;;21.00;52.30;;;;;;5009003;28;20030;-63
2022/07/16 00:51:09;;;;;;;2.20;1.73;;;21.00;52.30;;;;;;5009795;28;20022;-62
2022/07/16 00:53:35;;;;;;;2.25;1.70;;;21.00;52.20;;;;;;5028482;28;20145;-62
2022/07/16 00:56:00;;;;;;;1.73;1.58;;;21.00;52.20;;;;;;5027838;28;20519;-62
2022/07/16 00:58:26;;;;;;;4.32;2.00;;;21.00;52.20;;;;;;5028505;28;20486;-61
2022/07/16 01:00:51;;;;;;;2.60;1.45;;;21.00;52.80;;;;;;5010942;28;20032;-62
2022/07/16 01:03:17;;;;;;;3.67;1.77;;;21.00;52.20;;;;;;5010778;28;20017;-63
2022/07/16 01:05:42;;;;;;;3.97;1.70;;;21.00;52.30;;;;;;5027916;28;20067;-62
2022/07/16 01:08:08;;;;;;;2.28;1.58;;;21.00;52.20;;;;;;5027390;28;20029;-63
2022/07/16 01:10:33;;;;;;;3.22;1.75;;;21.00;52.20;;;;;;5026991;28;20038;-63
2022/07/16 01:13:00;;;;;;;2.42;1.60;;;21.00;52.30;;;;;;5027171;28;20517;-63
2022/07/16 01:15:25;;;;;;;2.65;1.77;;;21.00;52.30;;;;;;5028547;28;20038;-62
2022/07/16 01:17:51;;;;;;;4.65;1.63;;;21.00;52.40;;;;;;5028517;28;20037;-62
2022/07/16 01:20:16;;;;;;;3.97;1.42;;;21.00;52.40;;;;;;5026752;28;20034;-63
2022/07/16 01:22:42;;;;;;;1.98;1.25;;;21.00;52.40;;;;;;5029044;28;20113;-62
2022/07/16 01:25:09;;;;;;;3.83;1.30;;;21.00;52.40;;;;;;5026833;28;20064;-62
2022/07/16 01:27:35;;;;;;;1.58;1.27;;;21.00;52.40;;;;;;5010704;28;20037;-62
2022/07/16 01:30:00;;;;;;;2.95;1.45;;;20.90;52.40;;;;;;5028212;28;20094;-61
2022/07/16 01:32:26;;;;;;;2.22;1.48;;;20.90;52.40;;;;;;5028035;28;20080;-62
2022/07/16 01:34:51;;;;;;;2.65;1.17;;;21.00;52.50;;;;;;5028215;28;20487;-62
2022/07/16 01:37:17;;;;;;;2.03;0.98;;;20.90;53.10;;;;;;5028172;28;20030;-62
2022/07/16 01:39:43;;;;;;;3.28;0.90;;;20.90;52.60;;;;;;5028122;28;20120;-62
2022/07/16 01:42:10;;;;;;;2.03;1.13;;;20.90;52.60;;;;;;5027582;28;20033;-62
2022/07/16 01:44:36;;;;;;;2.15;1.10;;;20.90;52.60;;;;;;5010352;28;20045;-63
2022/07/16 01:47:02;;;;;;;2.90;1.02;;;20.90;52.60;;;;;;5028172;28;20770;-62
2022/07/16 01:49:32;;;;;;;1.70;1.15;;;20.90;52.60;;;;;;5027370;28;20030;-62
2022/07/16 01:51:57;;;;;;;3.67;1.38;;;20.90;52.60;;;;;;5026172;28;20041;-62
2022/07/16 01:54:23;;;;;;;1.98;1.08;;;20.90;52.70;;;;;;5026391;28;20025;-62
2022/07/16 01:56:48;;;;;;;2.95;1.00;;;20.90;52.70;;;;;;5027747;28;20522;-62
2022/07/16 01:59:14;;;;;;;3.60;1.30;;;20.90;52.70;;;;;;5027607;28;20028;-63
2022/07/16 02:01:39;;;;;;;2.00;1.10;;;20.90;52.70;;;;;;5026799;28;20037;-61
2022/07/16 02:04:05;;;;;;;2.47;0.93;;;20.90;52.70;;;;;;5027200;28;20036;-62
2022/07/16 02:06:30;;;;;;;2.10;0.98;;;20.90;52.70;;;;;;5027301;28;20436;-62
2022/07/16 02:08:56;;;;;;;2.25;1.67;;;20.80;52.70;;;;;;5027180;28;20034;-62
2022/07/16 02:11:21;;;;;;;1.95;1.60;;;20.80;52.60;;;;;;5027401;28;20036;-63
2022/07/16 02:13:47;;;;;;;4.43;2.17;;;20.80;52.70;;;;;;5017224;28;20394;-62
2022/07/16 02:16:12;;;;;;;3.05;1.67;;;20.90;52.80;;;;;;5026563;28;20037;-62
2022/07/16 02:18:38;;;;;;;3.05;1.90;;;20.80;52.60;;;;;;5026847;28;20021;-62
2022/07/16 02:21:03;;;;;;;1.77;1.40;;;20.80;52.70;;;;;;5026432;28;20449;-63
2022/07/16 02:23:29;;;;;;;3.45;2.00;;;20.80;52.70;;;;;;5026530;28;20037;-62
2022/07/16 02:25:54;;;;;;;2.97;2.05;;;20.80;52.70;;;;;;5026611;28;20029;-62
2022/07/16 02:28:20;;;;;;;3.38;1.73;;;20.80;52.70;;;;;;5026823;28;20029;-63
2022/07/16 02:30:47;;;;;;;4.07;1.98;;;20.80;52.80;;;;;;5027041;28;20017;-62
2022/07/16 02:33:14;;;;;;;3.70;1.48;;;20.80;52.70;;;;;;5026797;28;20056;-62
2022/07/16 02:35:39;;;;;;;2.47;1.73;;;20.80;52.80;;;;;;5026543;28;20072;-62
2022/07/16 02:38:06;;;;;;;2.83;1.63;;;20.80;52.70;;;;;;5007164;28;20077;-63
2022/07/16 02:40:33;;;;;;;5.13;1.67;;;20.80;52.80;;;;;;5006804;28;20129;-62
2022/07/16 02:42:59;;;;;;;4.90;1.90;;;20.80;52.70;;;;;;5024725;28;20045;-62
2022/07/16 02:45:24;;;;;;;3.60;1.70;;;20.80;52.80;;;;;;5025462;28;20042;-62
2022/07/16 02:47:50;;;;;;;5.40;1.90;;;20.80;52.70;;;;;;5026079;28;20026;-62
2022/07/16 02:50:15;;;;;;;4.55;1.95;;;20.80;52.80;;;;;;5027297;28;20026;-62
2022/07/16 02:52:41;;;;;;;2.85;1.67;;;20.80;52.80;;;;;;5026869;28;20034;-63
2022/07/16 02:55:07;;;;;;;3.70;2.13;;;20.80;52.80;;;;;;5026562;28;20045;-63
2022/07/16 02:57:32;;;;;;;2.15;1.58;;;20.80;52.80;;;;;;5026541;28;20035;-62
2022/07/16 02:59:58;;;;;;;3.17;2.00;;;20.70;52.70;;;;;;5026522;28;20405;-61
2022/07/16 03:02:23;;;;;;;2.80;1.95;;;20.80;52.80;;;;;;5026938;28;20183;-62
2022/07/16 03:04:49;;;;;;;3.90;1.80;;;20.80;52.70;;;;;;5026360;28;20033;-62
2022/07/16 03:07:15;;;;;;;3.28;1.88;;;20.70;52.70;;;;;;5026841;28;20061;-62
2022/07/16 03:09:40;;;;;;;4.78;2.38;;;20.70;52.70;;;;;;5026221;28;20028;-62
2022/07/16 03:12:06;;;;;;;2.22;1.70;;;20.70;52.70;;;;;;5026190;28;24486;-62
2022/07/16 03:14:31;;;;;;;2.30;1.85;;;20.70;52.70;;;;;;5016112;28;20025;-62
2022/07/16 03:16:57;;;;;;;2.25;1.85;;;20.70;52.70;;;;;;5009206;28;20551;-63
2022/07/16 03:19:22;;;;;;;2.42;1.80;;;20.70;52.70;;;;;;5027070;28;20536;-62
2022/07/16 03:21:48;;;;;;;3.17;1.80;;;20.70;52.70;;;;;;5026654;28;20030;-62
2022/07/16 03:24:13;;;;;;;4.13;1.60;;;20.70;52.70;;;;;;5027244;28;20132;-62
2022/07/16 03:26:38;;;;;;;5.57;2.60;;;20.70;52.80;;;;;;5026736;28;20033;-62
2022/07/16 03:29:04;;;;;;;2.58;1.63;;;20.70;52.80;;;;;;5026744;28;20260;-62
2022/07/16 03:31:29;;;;;;;3.88;1.77;;;20.70;52.80;;;;;;5027558;28;20023;-62
2022/07/16 03:33:55;;;;;;;2.13;1.75;;;20.70;52.80;;;;;;5029808;28;20557;-62
2022/07/16 03:36:22;;;;;;;5.88;1.90;;;20.70;52.70;;;;;;5030818;28;20036;-62
2022/07/16 03:38:58;;;;;;;3.20;1.83;;;20.70;52.70;;;;;;5030664;28;20026;-62
2022/07/16 03:41:23;;;;;;;;;;;20.70;52.70;;;;;;5031276;28;20030;-63
2022/07/16 03:43:49;;;;;;;2.60;1.90;;;20.70;52.70;;;;;;5015516;28;19916;-62
2022/07/16 03:46:14;;;;;;;2.80;1.98;;;20.70;52.70;;;;;;5030686;28;20079;-62
2022/07/16 03:48:40;;;;;;;3.67;1.55;;;20.70;52.70;;;;;;5029764;28;20029;-62
2022/07/16 03:51:06;;;;;;;3.78;1.92;;;20.60;52.70;;;;;;5029886;28;20030;-62
2022/07/16 03:53:32;;;;;;;4.05;1.60;;;20.70;52.70;;;;;;5029848;28;20026;-62
2022/07/16 03:55:58;;;;;;;5.85;1.70;;;20.70;52.60;;;;;;5030023;28;20030;-62
2022/07/16 03:58:23;;;;;;;3.97;1.60;;;20.60;52.60;;;;;;5029721;28;20026;-61
2022/07/16 04:00:49;;;;;;;4.10;1.85;;;20.60;52.70;;;;;;5029737;28;20090;-63
2022/07/16 04:03:14;;;;;;;3.30;1.45;;;20.60;52.70;;;;;;5030855;28;20021;-62
2022/07/16 04:05:40;;;;;;;2.70;1.55;;;20.60;52.60;;;;;;5027231;28;20034;-62
2022/07/16 04:08:05;;;;;;;3.25;1.67;;;20.60;52.70;;;;;;5030459;28;20025;-62
2022/07/16 04:10:31;;;;;;;3.60;1.90;;;20.60;52.60;;;;;;5030416;28;20036;-62
2022/07/16 04:12:56;;;;;;;3.00;1.80;;;20.60;52.70;;;;;;5030192;28;20037;-62
2022/07/16 04:15:22;;;;;;;3.80;1.67;;;20.60;52.60;;;;;;5029743;28;20037;-62
2022/07/16 04:17:47;;;;;;;3.75;1.75;;;20.60;52.70;;;;;;5029494;28;20044;-62
2022/07/16 04:20:13;;;;;;;2.75;1.80;;;20.60;52.70;;;;;;5029458;28;20030;-62
2022/07/16 04:22:38;;;;;;;3.55;1.60;;;20.60;52.70;;;;;;5028897;28;20040;-62
2022/07/16 04:25:04;;;;;;;3.38;1.83;;;20.60;52.70;;;;;;5028773;28;20036;-62
2022/07/16 04:27:29;;;;;;;5.95;1.73;;;20.60;52.70;;;;;;5029021;28;20168;-62
2022/07/16 04:29:55;;;;;;;2.20;1.80;;;20.60;52.70;;;;;;5028337;28;20048;-64
2022/07/16 04:32:21;;;;;;;7.82;1.88;;;20.60;52.70;;;;;;5028372;28;20025;-62
2022/07/16 04:34:46;;;;;;;2.70;1.70;;;20.60;52.70;;;;;;5029159;28;20113;-62
2022/07/16 04:37:13;;;;;;;2.95;1.73;;;20.60;52.70;;;;;;5027599;28;20057;-62
2022/07/16 04:39:38;;;;;;;2.42;1.45;;;20.60;52.70;;;;;;5027611;28;20029;-62
2022/07/16 04:42:04;;;;;;;3.63;1.70;;;20.60;52.70;;;;;;5028269;28;20045;-62
2022/07/16 04:44:29;;;;;;;3.60;1.65;;;20.60;52.70;;;;;;5028346;28;20477;-62
2022/07/16 04:46:55;;;;;;;3.15;1.48;;;20.60;52.70;;;;;;5029019;28;20021;-61
2022/07/16 04:49:20;;;;;;;2.60;1.48;;;20.60;52.70;;;;;;5028815;28;20072;-62
2022/07/16 04:51:46;;;;;;;2.03;1.58;;;20.60;52.70;;;;;;5029726;28;20659;-62
2022/07/16 04:54:11;;;;;;;3.40;1.58;;;20.60;52.70;;;;;;5028844;28;20033;-62
2022/07/16 04:56:37;;;;;;;2.35;1.58;;;20.60;52.70;;;;;;5029208;28;20030;-65
2022/07/16 04:59:02;;;;;;;5.15;1.45;;;20.60;52.80;;;;;;5028828;28;20128;-62
2022/07/16 05:01:28;;;;;;;2.35;1.60;;;20.60;52.80;;;;;;5029026;28;20116;-62
2022/07/16 05:03:53;;;;;;;2.88;1.80;;;20.60;52.80;;;;;;5028717;28;20029;-62
2022/07/16 05:06:19;;;;;;;1.88;1.25;;;20.60;52.80;;;;;;5028910;28;20025;-62
2022/07/16 05:08:44;;;;;;;3.78;1.42;;;20.60;52.90;;;;;;5028189;28;20033;-62
2022/07/16 05:11:10;;;;;;;2.88;1.67;;;20.60;52.90;;;;;;5028022;28;20045;-62
2022/07/16 05:13:35;;;;;;;3.00;1.40;;;20.60;52.90;;;;;;5028589;28;20624;-62
2022/07/16 05:16:02;;;;;;;2.58;1.58;;;20.60;52.90;;;;;;5029324;28;20141;-62
2022/07/16 05:18:27;;;;;;;3.05;1.40;;;20.60;52.90;;;;;;5028394;28;20038;-61
2022/07/16 05:20:53;;;;;;;5.47;2.03;;;20.60;52.90;;;;;;5028512;28;20021;-62
2022/07/16 05:23:18;;;;;;;4.78;1.40;;;20.60;52.90;;;;;;5028410;28;20137;-62
2022/07/16 05:25:44;;;;;;;3.38;1.60;;;20.60;52.90;;;;;;5028914;28;20034;-62
2022/07/16 05:28:09;;;;;;;5.63;1.70;;;20.60;52.90;;;;;;5028411;28;20026;-62
2022/07/16 05:30:35;;;;;;;3.13;1.45;;;20.60;52.90;;;;;;5026864;28;20100;-62
2022/07/16 05:33:01;;;;;;;2.97;1.45;;;20.60;52.90;;;;;;5028340;28;20112;-63
2022/07/16 05:35:26;;;;;;;1.38;1.00;;;20.60;53.60;;;;;;5028296;28;20032;-62
2022/07/16 05:37:52;;;;;;;2.88;1.30;;;20.60;52.90;;;;;;5018686;28;20561;-62
2022/07/16 05:40:17;;;;;;;1.90;1.20;;;20.60;53.00;;;;;;5027200;28;20571;-62
2022/07/16 05:42:43;;;;;;;4.20;1.45;;;20.60;53.10;;;;;;5028048;28;20033;-63
2022/07/16 05:45:09;;;;;;;2.10;0.98;;;20.60;53.00;;;;;;5028056;28;20036;-63
2022/07/16 05:47:36;;;;;;;2.58;1.23;;;20.60;53.00;;;;;;5028387;28;20700;-62
2022/07/16 05:50:02;;;;;;;2.72;1.50;;;20.60;53.10;;;;;;5027535;28;20123;-62
2022/07/16 05:52:27;;;;;;;3.38;1.20;;;20.60;53.10;;;;;;5028031;28;20037;-62
2022/07/16 05:54:53;;;;;;;4.93;1.52;;;20.60;53.20;;;;;;5027476;28;20408;-62
2022/07/16 05:57:18;;;;;;;3.42;1.20;;;20.60;53.20;;;;;;5027179;28;20497;-63
2022/07/16 05:59:44;;;;;;;2.22;1.20;;;20.60;53.30;;;;;;5028017;28;20397;-62
2022/07/16 06:02:09;;;;;;;2.67;1.15;;;20.60;53.30;;;;;;5027714;28;20030;-62
2022/07/16 06:04:35;;;;;;;2.35;1.17;;;20.60;53.40;;;;;;5027801;28;20038;-62
2022/07/16 06:07:00;;;;;;;1.90;1.00;;;20.60;53.40;;;;;;5027694;28;20488;-62
2022/07/16 06:09:26;;;;;;;3.45;1.42;;;20.50;53.30;;;;;;5026349;28;20034;-62
2022/07/16 06:11:51;;;;;;;4.65;1.35;;;20.60;53.40;;;;;;5026997;28;20021;-62
2022/07/16 06:14:17;;;;;;;3.85;1.35;;;20.50;53.30;;;;;;5027496;28;20025;-62
2022/07/16 06:16:43;;;;;;;1.88;1.17;;;20.60;53.40;;;;;;5027484;28;20064;-63
2022/07/16 06:19:08;;;;;;;3.63;1.30;;;20.60;53.40;;;;;;5026573;28;20025;-62
2022/07/16 06:21:34;;;;;;;1.90;0.95;;;20.50;53.30;;;;;;5026493;28;20053;-62
2022/07/16 06:23:59;;;;;;;3.33;1.40;;;20.50;53.40;;;;;;5026410;28;20026;-62
2022/07/16 06:26:25;;;;;;;2.72;1.30;;;20.50;53.40;;;;;;5026522;28;20065;-62
2022/07/16 06:28:50;;;;;;;1.40;0.88;;;20.50;53.40;;;;;;5026556;28;20032;-63
2022/07/16 06:31:16;;;;;;;1.90;1.20;;;20.50;53.40;;;;;;5026940;28;20037;-62
2022/07/16 06:33:41;;;;;;;3.20;1.20;;;20.50;53.50;;;;;;5026553;28;20067;-62
2022/07/16 06:36:07;;;;;;;2.60;1.13;;;20.50;53.50;;;;;;5025797;28;20236;-62
2022/07/16 06:38:32;;;;;;;3.42;1.15;;;20.50;53.60;;;;;;5026304;28;20063;-62
2022/07/16 06:40:58;;;;;;;3.30;1.30;;;20.50;53.60;;;;;;5026719;28;20018;-62
2022/07/16 06:43:23;;;;;;;4.45;1.27;;;20.50;53.60;;;;;;5026511;28;20552;-62
2022/07/16 06:45:49;;;;;;;2.25;0.90;;;20.50;53.70;;;;;;5026976;28;20098;-62
2022/07/16 06:48:14;;;;;;;3.38;1.25;;;20.50;53.70;;;;;;5027633;28;20034;-62
2022/07/16 06:50:40;;;;;;;3.72;0.98;;;20.50;53.60;;;;;;5026391;28;20421;-62
2022/07/16 06:53:06;;;;;;;1.70;0.90;;;20.50;53.70;;;;;;5026834;28;20021;-61
2022/07/16 06:55:31;;;;;;;5.68;1.20;;;20.50;53.70;;;;;;5026700;28;20057;-61
2022/07/16 06:57:57;;;;;;;1.90;1.15;;;20.50;53.70;;;;;;5027355;28;20058;-62
2022/07/16 07:00:22;;;;;;;5.65;1.10;;;20.50;53.70;;;;;;5026320;28;20466;-61
2022/07/16 07:02:48;;;;;;;2.25;1.02;;;20.50;53.70;;;;;;5027118;28;20033;-61
2022/07/16 07:05:13;;;;;;;3.92;1.30;;;20.50;53.70;;;;;;5026451;28;20075;-60
2022/07/16 07:07:39;;;;;;;3.28;1.17;;;20.50;53.80;;;;;;5026169;28;20033;-61
2022/07/16 07:10:05;;;;;;;1.88;1.25;;;20.50;53.80;;;;;;5026636;28;20502;-61
2022/07/16 07:12:30;;;;;;;2.25;1.00;;;20.50;53.80;;;;;;5026350;28;20061;-61
2022/07/16 07:14:56;;;;;;;2.20;1.08;;;20.50;53.70;;;;;;5026962;28;20022;-61
2022/07/16 07:17:21;;;;;;;1.85;0.90;;;20.50;53.80;;;;;;5026511;28;20033;-61
2022/07/16 07:19:47;;;;;;;2.88;1.17;;;20.50;53.80;;;;;;5027167;28;20033;-63
2022/07/16 07:22:12;;;;;;;1.92;1.05;;;20.50;53.80;;;;;;5026725;28;20104;-62
2022/07/16 07:24:38;;;;;;;2.63;0.95;;;20.50;53.90;;;;;;5027094;28;20033;-62
2022/07/16 07:27:03;;;;;;;1.35;0.73;;;20.50;54.00;;;;;;5027196;28;20029;-62
2022/07/16 07:29:29;;;;;;;1.25;0.80;;;20.50;54.00;;;;;;5026787;28;20049;-62
2022/07/16 07:31:54;;;;;;;3.00;1.00;;;20.50;53.90;;;;;;5026511;28;20393;-61
2022/07/16 07:34:20;;;;;;;2.05;0.80;;;20.50;53.90;;;;;;5026540;28;20100;-61
2022/07/16 07:36:45;;;;;;;1.27;0.60;;;20.50;53.90;;;;;;5027213;28;20032;-62
2022/07/16 07:39:11;;;;;;;1.58;0.95;;;20.50;53.90;;;;;;5026225;28;20025;-62
2022/07/16 07:41:37;;;;;;;1.30;0.93;;;20.50;54.00;;;;;;5025602;28;20382;-62
2022/07/16 07:44:02;;;;;;;2.08;0.82;;;20.50;54.00;;;;;;5008630;28;20444;-62
2022/07/16 07:46:28;;;;;;;2.63;1.00;;;20.50;54.00;;;;;;5026111;28;20040;-61
2022/07/16 07:48:53;;;;;;;1.95;1.10;;;20.50;54.00;;;;;;5025968;28;20029;-61
2022/07/16 07:51:19;;;;;;;2.00;1.00;;;20.50;54.10;;;;;;5026119;28;20468;-62
2022/07/16 07:53:44;;;;;;;2.53;0.98;;;20.50;54.00;;;;;;5026306;28;20041;-62
2022/07/16 07:56:10;;;;;;;2.83;0.82;;;20.50;54.00;;;;;;5025758;28;20096;-62
2022/07/16 07:58:37;;;;;;;1.55;0.93;;;20.50;54.20;;;;;;5025586;28;20029;-62
2022/07/16 08:01:02;;;;;;;1.50;0.80;;;20.50;54.30;;;;;;5026110;28;20021;-61
2022/07/16 08:03:28;;;;;;;1.90;1.08;;;20.50;54.20;;;;;;5025825;28;20710;-62
2022/07/16 08:05:54;;;;;;;1.95;0.80;;;20.50;54.20;;;;;;5025753;28;20040;-62
2022/07/16 08:08:19;;;;;;;1.33;0.68;;;20.50;54.20;;;;;;5025835;28;20053;-62
2022/07/16 08:10:45;;;;;;;2.00;0.88;;;20.50;54.20;;;;;;5026146;28;20025;-62
2022/07/16 08:13:10;;;;;;;1.67;0.77;;;20.50;54.30;;;;;;5025251;28;20071;-62
2022/07/16 08:15:36;;;;;;;1.25;0.65;;;20.50;54.20;;;;;;5025690;28;20025;-62
2022/07/16 08:18:01;;;;;;;2.70;1.10;;;20.50;54.30;;;;;;5025253;28;20033;-62
2022/07/16 08:20:27;;;;;;;2.40;0.82;;;20.50;54.30;;;;;;5027202;28;20041;-62
2022/07/16 08:22:52;;;;;;;3.25;1.30;;;20.40;54.40;;;;;;5028626;28;20060;-61
2022/07/16 08:28:19;;;;;;;2.20;1.00;;;20.50;54.50;;;;;;4919793;29;20453;-62
2022/07/16 08:30:44;;;;;;;2.38;1.23;;;20.50;54.50;;;;;;4991924;28;20150;-62
2022/07/16 08:33:10;;;;;;;4.82;1.15;;;20.50;54.60;;;;;;5021608;28;20033;-62
2022/07/16 08:35:36;;;;;;;2.90;0.90;;;20.50;54.40;;;;;;5028952;28;20042;-62
2022/07/16 08:38:01;;;;;;;4.45;1.02;;;20.50;54.50;;;;;;5028953;28;20092;-61
2022/07/16 08:40:27;;;;;;;2.67;1.10;;;20.40;54.50;;;;;;5028982;28;20034;-62
2022/07/16 08:42:52;;;;;;;3.25;1.20;;;20.40;54.40;;;;;;5027789;28;20493;-62
2022/07/16 08:45:20;;;;;;;3.28;0.90;;;20.50;54.80;;;;;;5029821;28;20038;-62
2022/07/16 08:47:46;;;;;;;1.45;1.00;;;20.40;54.60;;;;;;5029267;28;20109;-62
2022/07/16 08:50:13;;;;;;;3.17;1.10;;;20.50;54.70;;;;;;5012310;28;20160;-61
2022/07/16 08:52:44;;;;;;;1.80;0.77;;;20.50;54.70;;;;;;5030598;28;20037;-61
2022/07/16 08:55:09;;;;;;;2.95;1.30;;;20.40;54.70;;;;;;5030504;28;20211;-61
2022/07/16 08:57:37;;;;;;;1.73;0.90;;;20.40;54.60;;;;;;5030555;28;20163;-61
2022/07/16 09:00:03;;;;;;;3.90;1.55;;;20.40;54.70;;;;;;5030127;28;20091;-62
2022/07/16 09:02:28;;;;;;;2.50;0.88;;;20.40;54.80;;;;;;5030811;28;20112;-62
2022/07/16 09:04:54;;;;;;;3.55;1.23;;;20.40;54.90;;;;;;5031087;28;20087;-62
2022/07/16 09:07:21;;;;;;;2.75;1.10;;;20.40;54.80;;;;;;5031286;28;20060;-61
2022/07/16 09:09:47;;;;;;;2.15;1.20;;;20.50;54.90;;;;;;5030174;28;20086;-61
2022/07/16 09:12:18;;;;;;;2.95;1.60;;;20.40;54.70;;;;;;5029265;28;20124;-61
2022/07/16 09:14:44;;;;;;;2.20;1.08;;;20.40;54.80;;;;;;5025368;28;20053;-62
2022/07/16 09:17:09;;;;;;;2.47;1.45;;;20.40;54.70;;;;;;5010304;28;20037;-61
2022/07/16 09:19:35;;;;;;;2.65;1.23;;;20.40;54.80;;;;;;5027967;28;20501;-62
2022/07/16 09:22:11;;;;;;;2.80;1.00;;;20.50;54.90;;;;;;5012337;28;20037;-62
2022/07/16 09:24:52;;;;;;;2.28;1.20;;;20.50;54.80;;;;;;5029667;28;20037;-61
2022/07/16 09:27:18;;;;;;;1.83;1.52;;;20.50;54.80;;;;;;5029182;28;20116;-62
2022/07/16 09:29:58;;;;;;;1.50;1.00;;;20.50;54.70;;;;;;5027567;28;20060;-62
2022/07/16 09:32:27;;;;;;;1.60;1.10;;;20.50;54.70;;;;;;5027677;28;20044;-62
2022/07/16 09:35:13;;;;;;;2.13;1.40;;;20.50;54.90;;;;;;5029424;28;20022;-62
2022/07/16 09:37:57;;;;;;;3.80;1.08;;;20.40;54.90;;;;;;5029728;28;20064;-61
2022/07/16 09:40:39;;;;;;;3.90;1.40;;;20.50;55.00;;;;;;5008317;28;21871;-61
2022/07/16 09:43:14;;;;;;;1.65;0.98;;;20.40;55.20;;;;;;5012111;28;20041;-61
2022/07/16 09:45:43;;;;;;;3.85;1.42;;;20.40;55.10;;;;;;5028623;28;20041;-61
2022/07/16 09:48:20;;;;;;;4.65;1.33;;;20.40;55.70;;;;;;5028101;28;20120;-61
2022/07/16 09:50:45;;;;;;;1.50;1.05;;;20.40;55.00;;;;;;5028824;28;20037;-62
2022/07/16 09:53:14;;;;;;;2.35;1.38;;;20.40;55.00;;;;;;5028474;28;20067;-58
2022/07/16 09:56:03;;;;;;;2.70;1.25;;;20.40;55.10;;;;;;5027024;28;20046;-61
2022/07/16 09:58:29;;;;;;;1.23;1.10;;;20.40;55.30;;;;;;5026975;28;20061;-61
2022/07/16 10:00:55;;;;;;;4.60;1.70;;;20.40;55.10;;;;;;5028238;28;20049;-61
2022/07/16 10:03:20;;;;;;;4.25;1.38;;;20.40;55.50;;;;;;5027654;28;20030;-62
2022/07/16 10:05:46;;;;;;;4.97;1.55;;;20.40;55.50;;;;;;5028345;28;20505;-62
2022/07/16 10:08:13;;;;;;;4.05;1.63;;;20.40;55.40;;;;;;5027440;28;20059;-62
2022/07/16 10:10:38;;;;;;;1.67;1.35;;;20.40;55.30;;;;;;5027138;28;20046;-62
2022/07/16 10:13:04;;;;;;;3.30;1.80;;;20.40;55.50;;;;;;5026575;28;20037;-62
2022/07/16 10:15:29;;;;;;;2.70;1.70;;;20.30;55.30;;;;;;5025477;28;20112;-62
2022/07/16 10:17:55;;;;;;;3.17;1.88;;;20.30;55.50;;;;;;5025912;28;20757;-62
2022/07/16 10:20:20;;;;;;;4.28;1.20;;;20.30;55.50;;;;;;5026653;28;20045;-62
2022/07/16 10:22:47;;;;;;;2.30;1.52;;;20.30;55.20;;;;;;5027468;28;20032;-61
2022/07/16 10:25:23;;;;;;;7.75;1.60;;;20.40;55.40;;;;;;5026786;28;20062;-64
2022/07/16 10:27:49;;;;;;;5.22;1.60;;;20.40;55.50;;;;;;5026155;28;21355;-62
2022/07/16 10:30:19;;;;;;;4.03;1.67;;;20.40;55.50;;;;;;5025101;28;20030;-61
2022/07/16 10:33:00;;;;;;;4.18;1.73;;;20.40;55.60;;;;;;5026985;28;20131;-62
2022/07/16 10:35:44;;;;;;;1.98;1.48;;;20.30;55.60;;;;;;5008820;28;20452;-62
2022/07/16 10:38:10;;;;;;;2.13;1.38;;;20.30;55.40;;;;;;5026409;28;20633;-62
2022/07/16 10:40:37;;;;;;;5.22;1.63;;;20.30;55.50;;;;;;5026667;28;20117;-61
2022/07/16 10:43:29;;;;;;;3.20;2.30;;;20.30;55.50;;;;;;5026895;28;20064;-61
2022/07/16 10:45:56;;;;;;;2.65;1.95;;;20.30;55.60;;;;;;5023416;28;20037;-62
2022/07/16 10:48:26;;;;;;;2.63;1.60;;;20.30;55.60;;;;;;5026981;28;20037;-62
2022/07/16 10:51:20;;;;;;;3.42;1.63;;;20.40;55.70;;;;;;5025803;28;20056;-62
2022/07/16 10:53:57;;;;;;;4.55;1.98;;;20.40;55.90;;;;;;5027000;28;20589;-61
2022/07/16 10:56:45;;;;;;;3.00;1.55;;;20.30;56.00;;;;;;5007013;28;20930;-61
2022/07/16 10:59:11;;;;;;;1.85;1.45;;;20.30;56.00;;;;;;5008243;28;20034;-61
2022/07/16 11:01:38;;;;;;;2.95;1.30;;;20.30;56.40;;;;;;5026741;28;20040;-61
2022/07/16 11:04:04;;;;;;;4.95;1.88;;;20.30;56.50;;;;;;5025477;28;20030;-61
2022/07/16 11:06:29;;;;;;;3.30;1.85;;;20.30;56.40;;;;;;5027034;28;20620;-62
2022/07/16 11:09:04;;;;;;;3.35;1.35;;;20.30;56.30;;;;;;5026343;28;20034;-61
2022/07/16 11:11:33;;;;;;;1.55;1.42;;;20.30;56.70;;;;;;5026615;28;20038;-62
2022/07/16 11:13:59;;;;;;;3.83;2.17;;;20.30;56.70;;;;;;5026422;28;20029;-62
2022/07/16 11:16:25;;;;;;;2.25;1.20;;;20.30;56.60;;;;;;5026719;28;20041;-62
2022/07/16 11:18:50;;;;;;;3.60;1.83;;;20.30;56.80;;;;;;5025850;28;20413;-62
2022/07/16 11:21:16;;;;;;;2.92;1.85;;;20.30;56.60;;;;;;5026717;28;20486;-62
2022/07/16 11:23:48;;;;;;;3.70;1.65;;;20.30;57.00;;;;;;5026858;28;20026;-62
2022/07/16 11:26:14;;;;;;;3.63;1.50;;;20.30;56.70;;;;;;5026937;28;20034;-61
2022/07/16 11:28:50;;;;;;;1.90;1.30;;;20.30;56.80;;;;;;5026162;28;20485;-62
2022/07/16 11:31:15;;;;;;;3.42;1.58;;;20.40;57.00;;;;;;5026662;28;20029;-62
2022/07/16 11:33:41;;;;;;;3.55;1.55;;;20.40;57.00;;;;;;5025380;28;20044;-62
2022/07/16 11:36:08;;;;;;;2.08;1.45;;;20.30;57.00;;;;;;5005368;28;20032;-62
2022/07/16 11:38:33;;;;;;;3.97;1.50;;;20.40;57.20;;;;;;5006628;28;20502;-61
2022/07/16 11:40:59;;;;;;;2.25;1.50;;;20.40;57.10;;;;;;5017212;28;20032;-62
2022/07/16 11:43:28;;;;;;;2.05;1.58;;;20.40;57.00;;;;;;5026400;28;20085;-62
2022/07/16 11:45:54;;;;;;;3.40;1.70;;;20.40;57.00;;;;;;5026130;28;20638;-62
2022/07/16 11:48:19;;;;;;;1.67;1.35;;;20.40;57.20;;;;;;5027141;28;20034;-62
2022/07/16 11:50:45;;;;;;;2.22;1.40;;;20.40;57.20;;;;;;5026250;28;20052;-62
2022/07/16 11:53:14;;;;;;;2.00;1.23;;;20.40;57.00;;;;;;5026916;28;20038;-61
2022/07/16 11:55:45;;;;;;;2.33;1.40;;;20.40;57.20;;;;;;5029677;28;20048;-62
2022/07/16 11:58:15;;;;;;;2.70;1.23;;;20.40;57.20;;;;;;5030726;28;20040;-61
2022/07/16 12:00:48;;;;;;;3.17;1.38;;;20.30;57.40;;;;;;5028574;28;20057;-61
2022/07/16 12:03:13;;;;;;;1.83;1.40;;;20.40;57.10;;;;;;5030126;28;20091;-62
2022/07/16 12:05:39;;;;;;;3.08;1.45;;;20.40;57.00;;;;;;5029218;28;20492;-62
2022/07/16 12:08:05;;;;;;;1.55;1.20;;;20.40;56.90;;;;;;5029436;28;20040;-61
2022/07/16 12:10:30;;;;;;;2.00;1.48;;;20.40;56.90;;;;;;5028690;28;20565;-61
2022/07/16 12:13:03;;;;;;;1.63;1.30;;;20.40;57.00;;;;;;5028847;28;20091;-62
2022/07/16 12:15:28;;;;;;;4.13;1.27;;;20.40;56.80;;;;;;5011138;28;20037;-61
2022/07/16 12:17:54;;;;;;;1.27;1.17;;;20.40;56.60;;;;;;5029220;28;20029;-62
2022/07/16 12:20:22;;;;;;;3.13;1.45;;;20.40;56.60;;;;;;5027910;28;20044;-62
2022/07/16 12:22:55;;;;;;;1.35;1.17;;;20.40;56.60;;;;;;5009521;28;20029;-62
2022/07/16 12:25:27;;;;;;;2.60;1.55;;;20.40;57.00;;;;;;5009161;28;20042;-62
2022/07/16 12:28:21;;;;;;;1.48;1.35;;;20.40;56.90;;;;;;5006897;28;20346;-62
2022/07/16 12:30:49;;;;;;;3.38;1.27;;;20.40;56.80;;;;;;5010798;28;20034;-62
2022/07/16 12:33:15;;;;;;;3.30;1.38;;;20.40;56.70;;;;;;5028719;28;20177;-62
2022/07/16 12:35:47;;;;;;;2.35;1.17;;;20.40;56.80;;;;;;5029348;28;20553;-62
2022/07/16 12:39:05;;;;;;;1.67;1.30;;;20.40;56.40;;;;;;5029624;28;20086;-62
2022/07/16 12:41:43;;;;;;;1.50;1.20;;;20.40;56.50;;;;;;5028843;28;20078;-62
2022/07/16 12:44:10;;;;;;;1.73;1.52;;;20.50;56.10;;;;;;5028927;28;20041;-62
2022/07/16 12:46:41;;;;;;;3.08;1.48;;;20.40;56.60;;;;;;5029192;28;20092;-62
2022/07/16 12:49:09;;;;;;;2.03;1.20;;;20.40;56.70;;;;;;5029150;28;20079;-62
2022/07/16 12:51:37;;;;;;;2.25;1.10;;;20.40;56.10;;;;;;5029223;28;20825;-63